UUOO/VOZ METAR and TAF weather

Enter ICAO airport designator
Station Type Date Time Source
UUOO METAR 2019/08/17 10:30 UTC NOAA

UUOO 171030Z VRB01MPS 8000 -SHRA OVC013CB 20/17 Q1009 R12/290255 NOSIG RMK QFE743


Station Type Date Time Source
UUOO Decoded METAR 2019/08/17 10:30 UTC NOAA

Station name not available
Aug 17, 2019 - 06:30 AM EDT / 2019.08.17 1030 UTC
Wind: Variable at 2 MPH (2 KT):0
Visibility: 4 mile(s):0
Sky conditions: overcast
Weather: light rain showers; Cumulonimbus clouds observed
Temperature: 68 F (20 C)
Dew Point: 62 F (17 C)
Relative Humidity: 82%
Pressure (altimeter): 29.80 in. Hg (1009 hPa)
ob: UUOO 171030Z VRB01MPS 8000 -SHRA OVC013CB 20/17 Q1009 R12/290255 NOSIG RMK QFE743
cycle: 10

Station Type Date Time Source
UUOO TAF 2019/08/12 03:33 UTC NOAA

TAF COR TAF COR UUOO 120159 1203/1212 31003MPS CAVOK

Example: see airport list